sensor_id;sensor_type;location;lat;lon;timestamp;P1;durP1;ratioP1;P2;durP2;ratioP2
40917;SDS011;26644;50.248;19.032;2022-09-27T00:02:31;61.35;;;29.15;;
40917;SDS011;26644;50.248;19.032;2022-09-27T00:05:33;50.95;;;25.25;;
40917;SDS011;26644;50.248;19.032;2022-09-27T00:08:35;53.63;;;26.35;;
40917;SDS011;26644;50.248;19.032;2022-09-27T00:11:39;44.78;;;22.30;;
40917;SDS011;26644;50.248;19.032;2022-09-27T00:14:42;40.90;;;20.73;;
40917;SDS011;26644;50.248;19.032;2022-09-27T00:17:44;42.70;;;21.27;;
40917;SDS011;26644;50.248;19.032;2022-09-27T00:20:46;44.42;;;21.73;;
40917;SDS011;26644;50.248;19.032;2022-09-27T00:23:47;40.70;;;21.90;;
40917;SDS011;26644;50.248;19.032;2022-09-27T00:26:51;47.05;;;22.95;;
40917;SDS011;26644;50.248;19.032;2022-09-27T00:29:52;50.83;;;23.55;;
40917;SDS011;26644;50.248;19.032;2022-09-27T00:32:54;47.40;;;22.98;;
40917;SDS011;26644;50.248;19.032;2022-09-27T00:36:02;44.53;;;23.75;;
40917;SDS011;26644;50.248;19.032;2022-09-27T00:39:04;50.15;;;25.27;;
40917;SDS011;26644;50.248;19.032;2022-09-27T00:42:09;52.55;;;26.52;;
40917;SDS011;26644;50.248;19.032;2022-09-27T00:45:12;55.95;;;27.77;;
40917;SDS011;26644;50.248;19.032;2022-09-27T00:48:17;58.28;;;27.08;;
40917;SDS011;26644;50.248;19.032;2022-09-27T00:51:23;52.53;;;27.67;;
40917;SDS011;26644;50.248;19.032;2022-09-27T00:54:26;67.60;;;30.08;;
40917;SDS011;26644;50.248;19.032;2022-09-27T00:57:31;68.53;;;31.67;;
40917;SDS011;26644;50.248;19.032;2022-09-27T01:00:33;69.60;;;32.42;;
40917;SDS011;26644;50.248;19.032;2022-09-27T01:03:38;73.95;;;32.72;;
40917;SDS011;26644;50.248;19.032;2022-09-27T01:06:50;84.63;;;36.40;;
40917;SDS011;26644;50.248;19.032;2022-09-27T01:09:52;92.60;;;37.08;;
40917;SDS011;26644;50.248;19.032;2022-09-27T01:12:57;89.63;;;37.58;;
40917;SDS011;26644;50.248;19.032;2022-09-27T01:16:07;511.98;;;69.03;;
40917;SDS011;26644;50.248;19.032;2022-09-27T01:19:16;117.65;;;38.75;;
40917;SDS011;26644;50.248;19.032;2022-09-27T01:22:32;123.45;;;38.42;;
40917;SDS011;26644;50.248;19.032;2022-09-27T01:25:46;218.70;;;46.55;;
40917;SDS011;26644;50.248;19.032;2022-09-27T01:28:59;273.00;;;46.92;;
40917;SDS011;26644;50.248;19.032;2022-09-27T01:32:11;213.57;;;43.70;;
40917;SDS011;26644;50.248;19.032;2022-09-27T01:35:24;124.07;;;39.13;;
40917;SDS011;26644;50.248;19.032;2022-09-27T01:38:35;221.43;;;45.55;;
40917;SDS011;26644;50.248;19.032;2022-09-27T01:41:50;147.05;;;41.15;;
40917;SDS011;26644;50.248;19.032;2022-09-27T01:45:08;204.20;;;44.67;;
40917;SDS011;26644;50.248;19.032;2022-09-27T01:48:34;245.65;;;46.78;;
40917;SDS011;26644;50.248;19.032;2022-09-27T01:51:50;253.95;;;50.58;;
40917;SDS011;26644;50.248;19.032;2022-09-27T01:54:57;702.93;;;80.10;;
40917;SDS011;26644;50.248;19.032;2022-09-27T01:58:31;369.27;;;58.05;;
40917;SDS011;26644;50.248;19.032;2022-09-27T02:01:38;185.85;;;46.17;;
40917;SDS011;26644;50.248;19.032;2022-09-27T02:04:45;156.55;;;42.60;;
40917;SDS011;26644;50.248;19.032;2022-09-27T02:07:54;153.25;;;43.25;;
40917;SDS011;26644;50.248;19.032;2022-09-27T02:11:00;325.58;;;49.17;;
40917;SDS011;26644;50.248;19.032;2022-09-27T02:14:08;149.75;;;42.38;;
40917;SDS011;26644;50.248;19.032;2022-09-27T02:17:22;145.07;;;39.72;;
40917;SDS011;26644;50.248;19.032;2022-09-27T02:20:34;156.43;;;38.15;;
40917;SDS011;26644;50.248;19.032;2022-09-27T02:23:40;153.13;;;38.78;;
40917;SDS011;26644;50.248;19.032;2022-09-27T02:26:47;99.88;;;33.85;;
40917;SDS011;26644;50.248;19.032;2022-09-27T02:30:01;170.15;;;38.63;;
40917;SDS011;26644;50.248;19.032;2022-09-27T02:33:08;126.55;;;37.80;;
40917;SDS011;26644;50.248;19.032;2022-09-27T02:36:11;88.13;;;33.20;;
40917;SDS011;26644;50.248;19.032;2022-09-27T02:39:13;94.78;;;35.35;;
40917;SDS011;26644;50.248;19.032;2022-09-27T02:42:18;87.78;;;35.33;;
40917;SDS011;26644;50.248;19.032;2022-09-27T02:45:20;87.55;;;35.70;;
40917;SDS011;26644;50.248;19.032;2022-09-27T02:48:24;178.07;;;37.78;;
40917;SDS011;26644;50.248;19.032;2022-09-27T02:51:36;233.65;;;36.45;;
40917;SDS011;26644;50.248;19.032;2022-09-27T02:54:58;215.35;;;39.17;;
40917;SDS011;26644;50.248;19.032;2022-09-27T02:58:24;175.45;;;37.40;;
40917;SDS011;26644;50.248;19.032;2022-09-27T03:02:11;98.75;;;31.25;;
40917;SDS011;26644;50.248;19.032;2022-09-27T03:05:43;115.70;;;35.13;;
40917;SDS011;26644;50.248;19.032;2022-09-27T03:08:51;121.03;;;39.60;;
40917;SDS011;26644;50.248;19.032;2022-09-27T03:11:53;148.85;;;39.03;;
40917;SDS011;26644;50.248;19.032;2022-09-27T03:14:56;91.18;;;35.17;;
40917;SDS011;26644;50.248;19.032;2022-09-27T03:18:28;128.45;;;36.53;;
40917;SDS011;26644;50.248;19.032;2022-09-27T03:21:51;82.07;;;33.70;;
40917;SDS011;26644;50.248;19.032;2022-09-27T03:24:54;142.98;;;35.67;;
40917;SDS011;26644;50.248;19.032;2022-09-27T03:27:56;130.57;;;34.83;;
40917;SDS011;26644;50.248;19.032;2022-09-27T03:30:59;126.03;;;33.13;;
40917;SDS011;26644;50.248;19.032;2022-09-27T03:34:21;104.85;;;32.08;;
40917;SDS011;26644;50.248;19.032;2022-09-27T03:37:23;112.35;;;31.90;;
40917;SDS011;26644;50.248;19.032;2022-09-27T03:40:30;90.30;;;30.40;;
40917;SDS011;26644;50.248;19.032;2022-09-27T03:43:32;87.72;;;32.88;;
40917;SDS011;26644;50.248;19.032;2022-09-27T03:46:37;76.10;;;30.63;;
40917;SDS011;26644;50.248;19.032;2022-09-27T03:49:39;90.85;;;30.33;;
40917;SDS011;26644;50.248;19.032;2022-09-27T03:52:40;78.72;;;30.05;;
40917;SDS011;26644;50.248;19.032;2022-09-27T03:55:45;96.88;;;29.70;;
40917;SDS011;26644;50.248;19.032;2022-09-27T03:58:47;69.45;;;28.20;;
40917;SDS011;26644;50.248;19.032;2022-09-27T04:01:50;81.18;;;30.95;;
40917;SDS011;26644;50.248;19.032;2022-09-27T04:05:12;65.03;;;28.45;;
40917;SDS011;26644;50.248;19.032;2022-09-27T04:08:14;57.35;;;26.70;;
40917;SDS011;26644;50.248;19.032;2022-09-27T04:11:17;62.88;;;28.25;;
40917;SDS011;26644;50.248;19.032;2022-09-27T04:14:20;70.97;;;27.15;;
40917;SDS011;26644;50.248;19.032;2022-09-27T04:17:42;64.53;;;29.05;;
40917;SDS011;26644;50.248;19.032;2022-09-27T04:21:13;171.13;;;33.10;;
40917;SDS011;26644;50.248;19.032;2022-09-27T04:24:21;69.93;;;28.20;;
40917;SDS011;26644;50.248;19.032;2022-09-27T04:27:44;89.05;;;28.90;;
40917;SDS011;26644;50.248;19.032;2022-09-27T04:30:48;63.33;;;28.48;;
40917;SDS011;26644;50.248;19.032;2022-09-27T04:34:22;47.17;;;24.95;;
40917;SDS011;26644;50.248;19.032;2022-09-27T04:37:44;56.10;;;26.05;;
40917;SDS011;26644;50.248;19.032;2022-09-27T04:40:46;47.03;;;24.83;;
40917;SDS011;26644;50.248;19.032;2022-09-27T04:43:50;52.78;;;25.80;;
40917;SDS011;26644;50.248;19.032;2022-09-27T04:46:53;46.58;;;24.08;;
40917;SDS011;26644;50.248;19.032;2022-09-27T04:49:55;49.50;;;25.88;;
40917;SDS011;26644;50.248;19.032;2022-09-27T04:52:57;54.25;;;24.75;;
40917;SDS011;26644;50.248;19.032;2022-09-27T04:55:59;47.08;;;24.13;;
40917;SDS011;26644;50.248;19.032;2022-09-27T04:59:07;51.72;;;25.23;;
40917;SDS011;26644;50.248;19.032;2022-09-27T05:02:09;47.85;;;23.77;;
40917;SDS011;26644;50.248;19.032;2022-09-27T05:05:23;44.95;;;24.23;;
40917;SDS011;26644;50.248;19.032;2022-09-27T05:08:25;54.13;;;25.73;;
40917;SDS011;26644;50.248;19.032;2022-09-27T05:11:48;49.38;;;24.67;;
40917;SDS011;26644;50.248;19.032;2022-09-27T05:14:51;47.10;;;23.95;;
40917;SDS011;26644;50.248;19.032;2022-09-27T05:18:16;45.55;;;23.77;;
40917;SDS011;26644;50.248;19.032;2022-09-27T05:21:37;38.93;;;22.60;;
40917;SDS011;26644;50.248;19.032;2022-09-27T05:24:39;41.60;;;23.02;;
40917;SDS011;26644;50.248;19.032;2022-09-27T05:27:40;43.40;;;23.27;;
40917;SDS011;26644;50.248;19.032;2022-09-27T05:30:44;40.05;;;23.65;;
40917;SDS011;26644;50.248;19.032;2022-09-27T05:33:52;36.30;;;21.52;;
40917;SDS011;26644;50.248;19.032;2022-09-27T05:37:21;46.58;;;24.20;;
40917;SDS011;26644;50.248;19.032;2022-09-27T05:40:23;55.63;;;25.52;;
40917;SDS011;26644;50.248;19.032;2022-09-27T05:43:26;47.55;;;25.10;;
40917;SDS011;26644;50.248;19.032;2022-09-27T05:46:31;41.33;;;22.35;;
40917;SDS011;26644;50.248;19.032;2022-09-27T05:49:33;44.35;;;22.30;;
40917;SDS011;26644;50.248;19.032;2022-09-27T05:52:37;31.83;;;18.92;;
40917;SDS011;26644;50.248;19.032;2022-09-27T05:55:40;34.35;;;19.27;;
40917;SDS011;26644;50.248;19.032;2022-09-27T05:58:42;28.17;;;19.15;;
40917;SDS011;26644;50.248;19.032;2022-09-27T06:01:52;33.33;;;19.13;;
40917;SDS011;26644;50.248;19.032;2022-09-27T06:05:13;32.45;;;18.33;;
40917;SDS011;26644;50.248;19.032;2022-09-27T06:08:34;31.98;;;19.40;;
40917;SDS011;26644;50.248;19.032;2022-09-27T06:11:38;31.65;;;17.33;;
40917;SDS011;26644;50.248;19.032;2022-09-27T06:14:41;30.17;;;17.92;;
40917;SDS011;26644;50.248;19.032;2022-09-27T06:17:50;25.58;;;15.90;;
40917;SDS011;26644;50.248;19.032;2022-09-27T06:20:54;23.88;;;14.85;;
40917;SDS011;26644;50.248;19.032;2022-09-27T06:23:56;22.60;;;13.02;;
40917;SDS011;26644;50.248;19.032;2022-09-27T06:27:04;23.73;;;14.55;;
40917;SDS011;26644;50.248;19.032;2022-09-27T06:30:19;22.20;;;14.35;;
40917;SDS011;26644;50.248;19.032;2022-09-27T06:33:26;23.85;;;14.48;;
40917;SDS011;26644;50.248;19.032;2022-09-27T06:36:29;26.50;;;15.02;;
40917;SDS011;26644;50.248;19.032;2022-09-27T06:39:32;21.92;;;13.82;;
40917;SDS011;26644;50.248;19.032;2022-09-27T06:43:00;28.40;;;15.95;;
40917;SDS011;26644;50.248;19.032;2022-09-27T06:46:25;30.20;;;16.67;;
40917;SDS011;26644;50.248;19.032;2022-09-27T06:49:39;26.13;;;13.43;;
40917;SDS011;26644;50.248;19.032;2022-09-27T06:52:45;24.63;;;15.10;;
40917;SDS011;26644;50.248;19.032;2022-09-27T06:55:48;22.55;;;14.30;;
40917;SDS011;26644;50.248;19.032;2022-09-27T06:58:51;23.02;;;15.13;;
40917;SDS011;26644;50.248;19.032;2022-09-27T07:02:16;22.80;;;15.57;;
40917;SDS011;26644;50.248;19.032;2022-09-27T07:05:52;21.98;;;14.45;;
40917;SDS011;26644;50.248;19.032;2022-09-27T07:09:15;25.88;;;14.27;;
40917;SDS011;26644;50.248;19.032;2022-09-27T07:12:17;22.23;;;13.48;;
40917;SDS011;26644;50.248;19.032;2022-09-27T07:15:23;20.48;;;12.63;;
40917;SDS011;26644;50.248;19.032;2022-09-27T07:18:25;23.77;;;11.98;;
40917;SDS011;26644;50.248;19.032;2022-09-27T07:21:28;18.30;;;11.02;;
40917;SDS011;26644;50.248;19.032;2022-09-27T07:24:32;18.00;;;11.13;;
40917;SDS011;26644;50.248;19.032;2022-09-27T07:27:34;7.63;;;4.57;;
40917;SDS011;26644;50.248;19.032;2022-09-27T07:30:36;14.50;;;6.32;;
40917;SDS011;26644;50.248;19.032;2022-09-27T07:33:38;12.40;;;6.03;;
40917;SDS011;26644;50.248;19.032;2022-09-27T07:36:42;10.32;;;7.82;;
40917;SDS011;26644;50.248;19.032;2022-09-27T07:39:43;11.88;;;5.72;;
40917;SDS011;26644;50.248;19.032;2022-09-27T07:42:46;10.07;;;6.47;;
40917;SDS011;26644;50.248;19.032;2022-09-27T07:45:50;11.45;;;5.03;;
40917;SDS011;26644;50.248;19.032;2022-09-27T07:49:10;9.32;;;5.90;;
40917;SDS011;26644;50.248;19.032;2022-09-27T07:52:49;12.95;;;7.80;;
40917;SDS011;26644;50.248;19.032;2022-09-27T07:56:27;16.77;;;8.88;;
40917;SDS011;26644;50.248;19.032;2022-09-27T07:59:29;12.50;;;8.02;;
40917;SDS011;26644;50.248;19.032;2022-09-27T08:02:31;15.70;;;8.13;;
40917;SDS011;26644;50.248;19.032;2022-09-27T08:05:34;11.23;;;8.32;;
40917;SDS011;26644;50.248;19.032;2022-09-27T08:08:38;16.73;;;9.52;;
40917;SDS011;26644;50.248;19.032;2022-09-27T08:11:41;12.93;;;8.38;;
40917;SDS011;26644;50.248;19.032;2022-09-27T08:14:46;12.48;;;6.80;;
40917;SDS011;26644;50.248;19.032;2022-09-27T08:17:48;10.48;;;7.10;;
40917;SDS011;26644;50.248;19.032;2022-09-27T08:20:57;11.15;;;7.45;;
40917;SDS011;26644;50.248;19.032;2022-09-27T08:24:03;10.73;;;6.90;;
40917;SDS011;26644;50.248;19.032;2022-09-27T08:27:18;6.22;;;4.45;;
40917;SDS011;26644;50.248;19.032;2022-09-27T08:30:22;8.88;;;5.25;;
40917;SDS011;26644;50.248;19.032;2022-09-27T08:33:24;12.27;;;6.70;;
40917;SDS011;26644;50.248;19.032;2022-09-27T08:36:26;12.13;;;7.32;;
40917;SDS011;26644;50.248;19.032;2022-09-27T08:39:31;9.60;;;7.05;;
40917;SDS011;26644;50.248;19.032;2022-09-27T08:42:34;10.45;;;6.50;;
40917;SDS011;26644;50.248;19.032;2022-09-27T08:45:46;12.20;;;6.80;;
40917;SDS011;26644;50.248;19.032;2022-09-27T08:49:02;10.57;;;7.10;;
40917;SDS011;26644;50.248;19.032;2022-09-27T08:52:11;10.85;;;7.18;;
40917;SDS011;26644;50.248;19.032;2022-09-27T08:55:25;12.38;;;8.10;;
40917;SDS011;26644;50.248;19.032;2022-09-27T08:58:32;9.98;;;6.03;;
40917;SDS011;26644;50.248;19.032;2022-09-27T09:01:39;13.70;;;7.55;;
40917;SDS011;26644;50.248;19.032;2022-09-27T09:05:02;12.90;;;8.20;;
40917;SDS011;26644;50.248;19.032;2022-09-27T09:08:20;11.00;;;7.50;;
40917;SDS011;26644;50.248;19.032;2022-09-27T09:11:37;14.50;;;7.32;;
40917;SDS011;26644;50.248;19.032;2022-09-27T09:15:13;8.27;;;6.63;;
40917;SDS011;26644;50.248;19.032;2022-09-27T09:18:29;7.93;;;5.03;;
40917;SDS011;26644;50.248;19.032;2022-09-27T09:21:50;8.80;;;5.03;;
40917;SDS011;26644;50.248;19.032;2022-09-27T09:25:04;11.18;;;5.80;;
40917;SDS011;26644;50.248;19.032;2022-09-27T09:28:23;11.32;;;6.30;;
40917;SDS011;26644;50.248;19.032;2022-09-27T09:31:37;7.72;;;5.75;;
40917;SDS011;26644;50.248;19.032;2022-09-27T09:34:44;9.20;;;5.47;;
40917;SDS011;26644;50.248;19.032;2022-09-27T09:37:51;7.35;;;4.90;;
40917;SDS011;26644;50.248;19.032;2022-09-27T09:40:57;8.32;;;5.03;;
40917;SDS011;26644;50.248;19.032;2022-09-27T09:44:09;8.70;;;5.70;;
40917;SDS011;26644;50.248;19.032;2022-09-27T09:47:23;8.80;;;6.07;;
40917;SDS011;26644;50.248;19.032;2022-09-27T09:50:33;8.77;;;5.47;;
40917;SDS011;26644;50.248;19.032;2022-09-27T09:53:40;17.45;;;6.78;;
40917;SDS011;26644;50.248;19.032;2022-09-27T09:56:48;7.68;;;4.18;;
40917;SDS011;26644;50.248;19.032;2022-09-27T09:59:58;6.60;;;3.42;;
40917;SDS011;26644;50.248;19.032;2022-09-27T10:03:16;6.00;;;2.40;;
40917;SDS011;26644;50.248;19.032;2022-09-27T10:06:19;110.68;;;15.20;;
40917;SDS011;26644;50.248;19.032;2022-09-27T10:09:22;6.53;;;4.15;;
40917;SDS011;26644;50.248;19.032;2022-09-27T10:12:45;5.85;;;4.53;;
40917;SDS011;26644;50.248;19.032;2022-09-27T10:15:52;6.60;;;4.60;;
40917;SDS011;26644;50.248;19.032;2022-09-27T10:19:00;7.00;;;4.70;;
40917;SDS011;26644;50.248;19.032;2022-09-27T10:22:09;8.68;;;5.03;;
40917;SDS011;26644;50.248;19.032;2022-09-27T10:25:17;5.90;;;4.47;;
40917;SDS011;26644;50.248;19.032;2022-09-27T10:28:40;7.68;;;4.07;;
40917;SDS011;26644;50.248;19.032;2022-09-27T10:31:47;9.38;;;5.32;;
40917;SDS011;26644;50.248;19.032;2022-09-27T10:34:52;7.38;;;5.15;;
40917;SDS011;26644;50.248;19.032;2022-09-27T10:37:55;5.93;;;4.30;;
40917;SDS011;26644;50.248;19.032;2022-09-27T10:41:22;5.40;;;4.10;;
40917;SDS011;26644;50.248;19.032;2022-09-27T10:44:34;8.48;;;4.40;;
40917;SDS011;26644;50.248;19.032;2022-09-27T10:47:58;7.25;;;3.97;;
40917;SDS011;26644;50.248;19.032;2022-09-27T10:51:24;7.70;;;4.70;;
40917;SDS011;26644;50.248;19.032;2022-09-27T10:54:31;5.28;;;3.50;;
40917;SDS011;26644;50.248;19.032;2022-09-27T10:57:35;4.95;;;3.92;;
40917;SDS011;26644;50.248;19.032;2022-09-27T11:00:39;5.15;;;3.38;;
40917;SDS011;26644;50.248;19.032;2022-09-27T11:03:46;14.02;;;7.50;;
40917;SDS011;26644;50.248;19.032;2022-09-27T11:06:50;5.40;;;3.60;;
40917;SDS011;26644;50.248;19.032;2022-09-27T11:09:53;6.32;;;3.78;;
40917;SDS011;26644;50.248;19.032;2022-09-27T11:13:06;7.28;;;3.80;;
40917;SDS011;26644;50.248;19.032;2022-09-27T11:16:22;6.78;;;4.10;;
40917;SDS011;26644;50.248;19.032;2022-09-27T11:19:46;4.93;;;3.70;;
40917;SDS011;26644;50.248;19.032;2022-09-27T11:23:02;5.95;;;4.20;;
40917;SDS011;26644;50.248;19.032;2022-09-27T11:26:25;8.05;;;4.07;;
40917;SDS011;26644;50.248;19.032;2022-09-27T11:29:41;9.18;;;3.92;;
40917;SDS011;26644;50.248;19.032;2022-09-27T11:33:22;7.50;;;3.90;;
40917;SDS011;26644;50.248;19.032;2022-09-27T11:36:50;12.73;;;4.22;;
40917;SDS011;26644;50.248;19.032;2022-09-27T11:43:32;4.43;;;2.83;;
40917;SDS011;26644;50.248;19.032;2022-09-27T11:46:52;5.40;;;3.70;;
40917;SDS011;26644;50.248;19.032;2022-09-27T11:53:44;6.60;;;4.07;;
40917;SDS011;26644;50.248;19.032;2022-09-27T11:57:01;7.20;;;3.38;;
40917;SDS011;26644;50.248;19.032;2022-09-27T12:00:16;5.70;;;4.07;;
40917;SDS011;26644;50.248;19.032;2022-09-27T12:03:36;9.45;;;4.45;;
40917;SDS011;26644;50.248;19.032;2022-09-27T12:06:53;7.15;;;4.60;;
40917;SDS011;26644;50.248;19.032;2022-09-27T12:10:06;8.32;;;4.95;;
40917;SDS011;26644;50.248;19.032;2022-09-27T12:13:13;9.57;;;4.47;;
40917;SDS011;26644;50.248;19.032;2022-09-27T12:16:19;6.18;;;4.93;;
40917;SDS011;26644;50.248;19.032;2022-09-27T12:19:24;6.32;;;4.38;;
40917;SDS011;26644;50.248;19.032;2022-09-27T12:22:42;7.03;;;4.72;;
40917;SDS011;26644;50.248;19.032;2022-09-27T12:25:53;6.45;;;3.83;;
40917;SDS011;26644;50.248;19.032;2022-09-27T12:29:03;6.78;;;4.53;;
40917;SDS011;26644;50.248;19.032;2022-09-27T12:32:14;8.93;;;4.88;;
40917;SDS011;26644;50.248;19.032;2022-09-27T12:35:23;6.28;;;4.97;;
40917;SDS011;26644;50.248;19.032;2022-09-27T12:38:34;7.28;;;4.10;;
40917;SDS011;26644;50.248;19.032;2022-09-27T12:41:42;7.53;;;4.32;;
40917;SDS011;26644;50.248;19.032;2022-09-27T12:44:59;11.73;;;5.25;;
40917;SDS011;26644;50.248;19.032;2022-09-27T12:48:04;8.45;;;4.60;;
40917;SDS011;26644;50.248;19.032;2022-09-27T12:51:14;9.70;;;5.03;;
40917;SDS011;26644;50.248;19.032;2022-09-27T12:54:23;8.07;;;5.40;;
40917;SDS011;26644;50.248;19.032;2022-09-27T12:57:39;6.45;;;5.25;;
40917;SDS011;26644;50.248;19.032;2022-09-27T13:00:54;5.95;;;3.78;;
40917;SDS011;26644;50.248;19.032;2022-09-27T13:04:07;7.60;;;5.15;;
40917;SDS011;26644;50.248;19.032;2022-09-27T13:07:24;23.13;;;6.85;;
40917;SDS011;26644;50.248;19.032;2022-09-27T13:10:39;21.65;;;4.45;;
40917;SDS011;26644;50.248;19.032;2022-09-27T13:14:10;12.43;;;5.93;;
40917;SDS011;26644;50.248;19.032;2022-09-27T13:21:09;10.32;;;4.80;;
40917;SDS011;26644;50.248;19.032;2022-09-27T13:35:50;13.55;;;6.95;;
40917;SDS011;26644;50.248;19.032;2022-09-27T13:39:16;15.43;;;7.45;;
40917;SDS011;26644;50.248;19.032;2022-09-27T13:42:39;20.23;;;8.35;;
40917;SDS011;26644;50.248;19.032;2022-09-27T13:45:49;13.93;;;8.00;;
40917;SDS011;26644;50.248;19.032;2022-09-27T13:48:56;15.82;;;7.53;;
40917;SDS011;26644;50.248;19.032;2022-09-27T13:52:20;15.68;;;8.00;;
40917;SDS011;26644;50.248;19.032;2022-09-27T13:55:41;19.52;;;8.95;;
40917;SDS011;26644;50.248;19.032;2022-09-27T13:58:51;14.05;;;8.85;;
40917;SDS011;26644;50.248;19.032;2022-09-27T14:02:24;25.08;;;9.95;;
40917;SDS011;26644;50.248;19.032;2022-09-27T14:05:32;21.33;;;11.18;;
40917;SDS011;26644;50.248;19.032;2022-09-27T14:08:39;24.38;;;12.23;;
40917;SDS011;26644;50.248;19.032;2022-09-27T14:11:47;22.30;;;13.05;;
40917;SDS011;26644;50.248;19.032;2022-09-27T14:14:53;21.77;;;12.60;;
40917;SDS011;26644;50.248;19.032;2022-09-27T14:17:57;27.90;;;11.82;;
40917;SDS011;26644;50.248;19.032;2022-09-27T14:21:10;21.83;;;11.60;;
40917;SDS011;26644;50.248;19.032;2022-09-27T14:24:27;18.65;;;10.93;;
40917;SDS011;26644;50.248;19.032;2022-09-27T14:27:36;22.92;;;10.20;;
40917;SDS011;26644;50.248;19.032;2022-09-27T14:31:10;12.68;;;5.40;;
40917;SDS011;26644;50.248;19.032;2022-09-27T14:34:41;5.40;;;3.78;;
40917;SDS011;26644;50.248;19.032;2022-09-27T14:37:45;6.13;;;2.65;;
40917;SDS011;26644;50.248;19.032;2022-09-27T14:40:53;5.30;;;2.28;;
40917;SDS011;26644;50.248;19.032;2022-09-27T14:43:58;3.88;;;2.03;;
40917;SDS011;26644;50.248;19.032;2022-09-27T14:47:08;5.78;;;2.50;;
40917;SDS011;26644;50.248;19.032;2022-09-27T14:50:12;5.85;;;2.78;;
40917;SDS011;26644;50.248;19.032;2022-09-27T14:53:21;8.82;;;3.33;;
40917;SDS011;26644;50.248;19.032;2022-09-27T14:56:25;7.35;;;3.33;;
40917;SDS011;26644;50.248;19.032;2022-09-27T14:59:32;5.85;;;3.40;;
40917;SDS011;26644;50.248;19.032;2022-09-27T15:02:38;6.65;;;3.53;;
40917;SDS011;26644;50.248;19.032;2022-09-27T15:05:41;7.65;;;3.70;;
40917;SDS011;26644;50.248;19.032;2022-09-27T15:08:45;11.00;;;4.22;;
40917;SDS011;26644;50.248;19.032;2022-09-27T15:11:50;11.63;;;5.22;;
40917;SDS011;26644;50.248;19.032;2022-09-27T15:14:55;9.73;;;4.43;;
40917;SDS011;26644;50.248;19.032;2022-09-27T15:17:58;12.73;;;4.95;;
40917;SDS011;26644;50.248;19.032;2022-09-27T15:21:01;9.93;;;4.30;;
40917;SDS011;26644;50.248;19.032;2022-09-27T15:24:05;10.48;;;4.80;;
40917;SDS011;26644;50.248;19.032;2022-09-27T15:27:27;8.70;;;5.00;;
40917;SDS011;26644;50.248;19.032;2022-09-27T15:30:32;14.57;;;7.10;;
40917;SDS011;26644;50.248;19.032;2022-09-27T15:33:35;12.85;;;6.80;;
40917;SDS011;26644;50.248;19.032;2022-09-27T15:36:48;17.33;;;8.18;;
40917;SDS011;26644;50.248;19.032;2022-09-27T15:39:54;17.20;;;8.68;;
40917;SDS011;26644;50.248;19.032;2022-09-27T15:43:10;17.52;;;8.15;;
40917;SDS011;26644;50.248;19.032;2022-09-27T15:46:24;22.15;;;8.27;;
40917;SDS011;26644;50.248;19.032;2022-09-27T15:49:33;14.63;;;7.40;;
40917;SDS011;26644;50.248;19.032;2022-09-27T15:52:38;18.30;;;8.10;;
40917;SDS011;26644;50.248;19.032;2022-09-27T15:55:43;16.35;;;8.15;;
40917;SDS011;26644;50.248;19.032;2022-09-27T15:58:45;27.83;;;10.25;;
40917;SDS011;26644;50.248;19.032;2022-09-27T16:01:47;25.02;;;10.15;;
40917;SDS011;26644;50.248;19.032;2022-09-27T16:04:52;24.10;;;12.10;;
40917;SDS011;26644;50.248;19.032;2022-09-27T16:07:54;21.52;;;12.23;;
40917;SDS011;26644;50.248;19.032;2022-09-27T16:10:58;27.25;;;13.32;;
40917;SDS011;26644;50.248;19.032;2022-09-27T16:14:02;22.90;;;12.95;;
40917;SDS011;26644;50.248;19.032;2022-09-27T16:17:04;27.50;;;13.38;;
40917;SDS011;26644;50.248;19.032;2022-09-27T16:20:06;30.23;;;14.75;;
40917;SDS011;26644;50.248;19.032;2022-09-27T16:23:15;29.73;;;16.60;;
40917;SDS011;26644;50.248;19.032;2022-09-27T16:26:18;35.45;;;18.42;;
40917;SDS011;26644;50.248;19.032;2022-09-27T16:29:20;34.10;;;18.20;;
40917;SDS011;26644;50.248;19.032;2022-09-27T16:32:22;39.70;;;19.83;;
40917;SDS011;26644;50.248;19.032;2022-09-27T16:35:24;41.40;;;20.58;;
40917;SDS011;26644;50.248;19.032;2022-09-27T16:38:27;45.63;;;22.70;;
40917;SDS011;26644;50.248;19.032;2022-09-27T16:41:31;39.35;;;21.27;;
40917;SDS011;26644;50.248;19.032;2022-09-27T16:44:33;41.55;;;21.63;;
40917;SDS011;26644;50.248;19.032;2022-09-27T16:47:35;42.05;;;21.25;;
40917;SDS011;26644;50.248;19.032;2022-09-27T16:50:37;42.08;;;22.60;;
40917;SDS011;26644;50.248;19.032;2022-09-27T16:53:57;42.67;;;21.45;;
40917;SDS011;26644;50.248;19.032;2022-09-27T16:57:00;39.90;;;21.88;;
40917;SDS011;26644;50.248;19.032;2022-09-27T17:00:03;38.92;;;22.40;;
40917;SDS011;26644;50.248;19.032;2022-09-27T17:03:05;43.72;;;22.25;;
40917;SDS011;26644;50.248;19.032;2022-09-27T17:06:08;37.45;;;22.13;;
40917;SDS011;26644;50.248;19.032;2022-09-27T17:09:10;45.15;;;23.45;;
40917;SDS011;26644;50.248;19.032;2022-09-27T17:12:13;47.45;;;23.23;;
40917;SDS011;26644;50.248;19.032;2022-09-27T17:15:16;46.45;;;23.90;;
40917;SDS011;26644;50.248;19.032;2022-09-27T17:18:18;42.70;;;23.17;;
40917;SDS011;26644;50.248;19.032;2022-09-27T17:21:20;44.00;;;22.95;;
40917;SDS011;26644;50.248;19.032;2022-09-27T17:24:22;48.67;;;24.17;;
40917;SDS011;26644;50.248;19.032;2022-09-27T17:27:27;45.65;;;26.38;;
40917;SDS011;26644;50.248;19.032;2022-09-27T17:30:29;44.53;;;25.98;;
40917;SDS011;26644;50.248;19.032;2022-09-27T17:33:31;49.55;;;27.40;;
40917;SDS011;26644;50.248;19.032;2022-09-27T17:36:35;45.88;;;25.15;;
40917;SDS011;26644;50.248;19.032;2022-09-27T17:39:37;47.15;;;24.90;;
40917;SDS011;26644;50.248;19.032;2022-09-27T17:42:40;49.13;;;25.63;;
40917;SDS011;26644;50.248;19.032;2022-09-27T17:45:42;49.38;;;26.10;;
40917;SDS011;26644;50.248;19.032;2022-09-27T17:48:44;48.17;;;25.15;;
40917;SDS011;26644;50.248;19.032;2022-09-27T17:52:03;48.45;;;26.48;;
40917;SDS011;26644;50.248;19.032;2022-09-27T17:55:05;54.97;;;28.63;;
40917;SDS011;26644;50.248;19.032;2022-09-27T17:58:09;55.28;;;27.83;;
40917;SDS011;26644;50.248;19.032;2022-09-27T18:01:11;56.25;;;29.00;;
40917;SDS011;26644;50.248;19.032;2022-09-27T18:04:13;62.20;;;30.42;;
40917;SDS011;26644;50.248;19.032;2022-09-27T18:07:17;55.90;;;28.27;;
40917;SDS011;26644;50.248;19.032;2022-09-27T18:10:20;60.92;;;29.98;;
40917;SDS011;26644;50.248;19.032;2022-09-27T18:13:23;61.83;;;31.00;;
40917;SDS011;26644;50.248;19.032;2022-09-27T18:16:26;62.78;;;30.95;;
40917;SDS011;26644;50.248;19.032;2022-09-27T18:19:31;66.90;;;31.60;;
40917;SDS011;26644;50.248;19.032;2022-09-27T18:22:33;61.60;;;33.28;;
40917;SDS011;26644;50.248;19.032;2022-09-27T18:25:35;59.15;;;29.60;;
40917;SDS011;26644;50.248;19.032;2022-09-27T18:28:41;60.00;;;31.10;;
40917;SDS011;26644;50.248;19.032;2022-09-27T18:31:43;61.15;;;30.80;;
40917;SDS011;26644;50.248;19.032;2022-09-27T18:34:46;49.33;;;25.25;;
40917;SDS011;26644;50.248;19.032;2022-09-27T18:37:48;57.22;;;28.80;;
40917;SDS011;26644;50.248;19.032;2022-09-27T18:40:50;56.75;;;29.10;;
40917;SDS011;26644;50.248;19.032;2022-09-27T18:43:58;51.60;;;25.88;;